• Join FlightAware (Why Join?)
  • Login
  • US Flag 
01:23PM EDT


 

Airport Tracker/Info


-or-


 

Live Flight TrackerFlight Track Log ✈ SIL4009 ✈ 13-May-2013 ✈ KTPA - KPNS

Flight Track Log - Related Links

Times and Time Zones

All times are in EDT time to prevent confusion due to time zone crossing. See the SIL4009 flight status page for this flight to view local times or setup timezone preferences in your user account.

Time Position Orientation Groundspeed Altitude Reporting Facility
EDT Latitude Longitude Course Direction KTS MPH feet Rate Location/Type
11:21AM 28.0176 -82.6189 319° Northwest  Level Estimated
11:22AM 28.0000 -82.5333 319° Northwest 143 165 600  Level Tampa TRACON
11:23AM 28.0333 -82.5500 336° Northwest 147 169 2,300 1,680 Climbing Tampa TRACON
11:24AM 28.0667 -82.5667 336° Northwest 151 174 3,900 1,260 Climbing Tampa TRACON
11:25AM 28.1167 -82.5833 344° North 188 216 4,800 1,200 Climbing Tampa TRACON
11:28AM 28.2206 -82.6642 326° Northwest 147 169 9,000 1,260 Climbing Jacksonville Center
11:29AM 28.2561 -82.6969 321° Northwest 152 175 10,000 480 Climbing Jacksonville Center
11:30AM 28.3000 -82.7347 323° Northwest 175 201 10,000  Level Jacksonville Center
11:31AM 28.3461 -82.7794 320° Northwest 209 241 10,000  Level Jacksonville Center
11:32AM 28.3983 -82.8242 323° Northwest 227 261 10,000  Level Jacksonville Center
11:33AM 28.4483 -82.8689 322° Northwest 241 277 10,000  Level Jacksonville Center
11:34AM 28.5006 -82.9161 322° Northwest 232 267 10,000  Level Jacksonville Center
11:35AM 28.5464 -82.9564 322° Northwest 226 260 10,000  Level Jacksonville Center
11:36AM 28.5986 -82.9989 324° Northwest 231 266 10,000  Level Jacksonville Center
11:37AM 28.6486 -83.0464 320° Northwest 231 266 10,000  Level Jacksonville Center
11:38AM 28.7028 -83.0939 322° Northwest 231 266 10,000  Level Jacksonville Center
11:39AM 28.7528 -83.1389 322° Northwest 231 266 10,000  Level Jacksonville Center
11:40AM 28.8028 -83.1839 322° Northwest 231 266 10,000  Level Jacksonville Center
11:41AM 28.8550 -83.2292 323° Northwest 231 266 10,000  Level Jacksonville Center
11:42AM 28.9047 -83.2744 321° Northwest 226 260 10,000  Level Jacksonville Center
11:43AM 28.9547 -83.3219 320° Northwest 231 266 10,000  Level Jacksonville Center
11:44AM 29.0067 -83.3675 323° Northwest 226 260 10,000  Level Jacksonville Center
11:45AM 29.0567 -83.4128 322° Northwest 226 260 10,000 -60 Level Jacksonville Center
11:46AM 29.1067 -83.4606 320° Northwest 226 260 9,900 -60 Descending Jacksonville Center
11:47AM 29.1586 -83.5061 323° Northwest 226 260 9,900  Level Jacksonville Center
11:48AM 29.2106 -83.5444 327° Northwest 226 260 9,900  Level Jacksonville Center
11:49AM 29.2689 -83.5900 326° Northwest 236 272 10,000  Climbing Jacksonville Center
11:50AM 29.3208 -83.6333 324° Northwest 236 272 10,000  Level Jacksonville Center
11:51AM 29.3747 -83.6767 325° Northwest 236 272 10,000  Level Jacksonville Center
11:52AM 29.4289 -83.7175 327° Northwest 236 272 10,000  Level Jacksonville Center
11:53AM 29.4850 -83.7539 331° Northwest 236 272 10,000  Level Jacksonville Center
11:54AM 29.5431 -83.7903 331° Northwest 236 272 10,000  Level Jacksonville Center
11:55AM 29.5992 -83.8264 331° Northwest 231 266 10,000  Level Jacksonville Center
11:56AM 29.6553 -83.8606 332° Northwest 231 266 10,000  Level Jacksonville Center
11:57AM 29.7136 -83.8969 332° Northwest 231 266 10,000  Level Jacksonville Center
11:58AM 29.7739 -83.9311 334° Northwest 231 266 10,000  Level Jacksonville Center
11:59AM 29.8319 -83.9628 335° Northwest 231 266 10,000  Level Jacksonville Center
12:00PM 29.8942 -83.9969 335° Northwest 236 272 10,000  Level Jacksonville Center
12:01PM 29.9525 -84.0314 333° Northwest 236 272 10,000  Level Jacksonville Center
12:02PM 30.0086 -84.0678 331° Northwest 236 272 10,000  Level Jacksonville Center
12:03PM 30.0686 -84.1022 334° Northwest 231 266 10,000  Level Jacksonville Center
12:04PM 30.1289 -84.1367 334° Northwest 231 266 10,000  Level Jacksonville Center
12:05PM 30.1850 -84.1661 336° Northwest 236 272 10,000  Level Jacksonville Center
12:06PM 30.2536 -84.1958 339° North 236 272 10,000  Level Jacksonville Center
12:08PM 30.3349 -84.2426 334° Northwest  Level FlightAware Approximate
12:14PM 30.6167 -84.5653 288° West 230 265 10,000  Level Jacksonville Center
12:14PM 30.6247 -84.5847 296° West 230 265 10,000  Level Jacksonville Center
12:15PM 30.6086 -84.5570 290° West  Level FlightAware Approximate
12:15PM 30.6511 -84.6506 295° West 228 262 10,000  Level Jacksonville Center
12:16PM 30.6285 -84.6218 290° West  Level FlightAware Approximate
12:16PM 30.6772 -84.7233 293° West 229 264 10,000  Level Jacksonville Center
12:17PM 30.6485 -84.6865 290° West  Level FlightAware Approximate
12:17PM 30.7033 -84.7964 293° West 233 268 10,000  Level Jacksonville Center
12:18PM 30.6684 -84.7513 290° West  Level FlightAware Approximate
12:18PM 30.7189 -84.8619 285° West 231 266 10,000  Level Jacksonville Center
12:19PM 30.6880 -84.8162 288° West  Level FlightAware Approximate
12:19PM 30.7344 -84.9419 283° West 235 270 10,000  Level Jacksonville Center
12:20PM 30.7500 -85.0150 284° West 237 273 10,000  Level Jacksonville Center
12:21PM 30.7694 -85.0903 287° West 238 274 10,000  Level Jacksonville Center
12:22PM 30.7869 -85.1633 286° West 236 272 10,000  Level Jacksonville Center
12:23PM 30.7897 -85.2431 272° West 243 280 10,000  Level Jacksonville Center
12:24PM 30.7925 -85.3181 272° West 241 277 10,000  Level Jacksonville Center
12:25PM 30.7972 -85.3981 274° West 242 278 10,000  Level Jacksonville Center
12:26PM 30.7997 -85.4803 272° West 243 280 10,000  Level Jacksonville Center
12:27PM 30.8044 -85.5556 274° West 243 280 10,000  Level Jacksonville Center
12:28PM 30.8089 -85.6378 274° West 243 280 10,000  Level Jacksonville Center
12:29PM 30.8114 -85.7153 272° West 244 281 10,000  Level Jacksonville Center
12:30PM 30.8158 -85.7975 274° West 243 280 10,000 -240 Level Jacksonville Center
12:32PM 30.8058 -85.8727 261° West  Level FlightAware Approximate
12:39PM 30.8146 -86.3650 274° West  Level FlightAware Approximate
12:40PM 30.8167 -86.4352 270° West  Level FlightAware Approximate
12:40PM 30.8156 -86.5353 232° Southwest 238 274 8,000  Level Jacksonville Center
12:41PM 30.8167 -86.5055 270° West  Level FlightAware Approximate
12:41PM 30.8158 -86.6056 270° West 233 268 8,000  Level Jacksonville Center
12:42PM 30.8167 -86.5758 270° West  Level FlightAware Approximate
12:42PM 30.8156 -86.6803 270° West 233 268 8,000  Level Jacksonville Center
12:43PM 30.8167 -86.6460 270° West  Level FlightAware Approximate
12:43PM 30.8133 -86.7578 268° West 235 270 8,000  Level Jacksonville Center
12:44PM 30.7905 -86.7059 232° Southwest  Level FlightAware Approximate
12:44PM 30.8131 -86.8303 270° West 226 260 7,100  Level Jacksonville Center
12:45PM 30.7535 -86.7614 232° Southwest  Level FlightAware Approximate
12:45PM 30.7778 -86.8917 236° Southwest 238 274 6,000  Level Jacksonville Center
12:46PM 30.7306 -86.9381 220° Southwest 241 277 5,200 -960 Descending Jacksonville Center
12:47PM 30.6703 -86.9933 218° Southwest 250 288 4,100 -1,020 Descending Jacksonville Center
12:48PM 30.6250 -87.0325 217° Southwest 211 243 3,200 -900 Descending Jacksonville Center
12:49PM 30.5758 -87.0714 214° Southwest 209 241 2,400 -780 Descending Jacksonville Center
12:50PM 30.5164 -87.1047 206° Southwest 219 252 1,700 -360 Descending Jacksonville Center
12:51PM 30.4631 -87.1339 205° Southwest 217 250 1,700 -240 Level Jacksonville Center
12:52PM 30.4186 -87.1536 201° Southwest 167 192 1,300 -540 Descending Jacksonville Center
12:53PM 30.4322 -87.1831 298° West 114 131 700 -600 Descending Jacksonville Center
12:55PM 30.4667 -87.1833 229° Southwest  Level FlightAware Approximate
01:02PM 30.4734 -87.1866 229° Southwest  Level Estimated